TAF and METAR

Decoding for American and Canadian METARs and TAFs is not fully implemented.

Could not understand the following METAR

CYCB 191500Z 09007KT 15SM FEW004 BKN150 BKN230 M31/M36 A3006 RMK SF1AC4CI2 SLP185

TAF for Cambridge Bay Airport

TAF AMD CYCB 191520Z 1915/2001 09008KT P6SM FEW040 BKN150 PROB30 1915/1918 BKN007 FM191800 10012KT P6SM SCT008 BKN030 TEMPO 1918/1921 3SM -SN BKN008 OVC030 FM192100 13015KT 2SM -SN BLSN OVC007 TEMPO 1921/2001 6SM -SN SCT008 OVC030 RMK NXT FCST BY 191900Z
Report created 19. mar 16:20

between 19. mar 16:00 - 20. mar 02:00

wind 8 knots from E (090°)
Cambridge Bay Airport in Canada at 27m

Latest 5 airports